Latest Weather Observations for Bradshaw

IDD60801

Issued at 1:01 pm CST Saturday 5 September 2015 (issued every 30 minutes, with the page automatically refreshed every 10 minutes)

About weather observations | Map of weather stations | Latest weather observations for NT | Other Formats
Station Details ID: 014954 Name: BRADSHAW Lat: -14.94 Lon: 130.81 Height: 75.0 m
Data from the previous 72 hours. | See also: Recent months at Bradshaw
Date/Time
CST
Temp
°C
App
Temp
°C
Dew
Point
Rel
Hum
%
Delta-T
°C
Wind Press
QNH
hPa
Press
MSL
hPa
Rain
since 9 am
mm
Dir
 
Spd
km/h
Gust
km/h
Spd
kts
Gust
kts
05/01:00pm 34.7 30.8 6.9 18 15.3 SE 17 33 9 18 1015.6 - 0.0
05/12:30pm 35.1 32.5 9.5 21 14.7 E 13 26 7 14 1016.3 - 0.0
05/12:00pm 33.5 30.4 10.2 24 13.4 NE 17 28 9 15 1017.0 1016.6 0.0
05/11:30am 33.0 31.0 11.5 27 12.6 NE 13 28 7 15 1017.6 - 0.0
05/11:00am 31.8 30.0 12.1 30 11.6 NE 13 20 7 11 1018.1 - 0.0
05/10:30am 30.9 29.4 11.8 31 11.2 ENE 11 19 6 10 1018.6 - 0.0
05/10:00am 29.5 27.7 12.0 34 10.2 ENE 13 19 7 10 1018.8 - 0.0
05/09:30am 28.3 26.7 11.4 35 9.7 ENE 11 17 6 9 1018.7 - 0.0
05/09:00am 27.5 25.5 10.2 34 9.7 NE 11 15 6 8 1018.7 1018.3 0.0
05/08:30am 26.5 23.6 9.8 35 9.3 NE 15 20 8 11 1018.5 - 0.0
05/08:00am 26.2 25.2 8.7 33 9.5 ENE 4 17 2 9 1018.1 - 0.0
05/07:30am 24.1 23.4 10.0 41 7.8 ENE 4 7 2 4 1017.7 - 0.0
05/07:00am 23.2 21.4 9.6 42 7.4 ENE 9 11 5 6 1017.2 - 0.0
05/06:30am 22.9 22.3 13.4 55 5.5 NE 9 11 5 6 1016.8 - 0.0
05/06:00am 21.2 20.9 12.6 58 4.9 NE 6 9 3 5 1016.4 1016.0 0.0
05/05:30am 21.7 21.8 12.8 57 5.1 E 4 7 2 4 1016.0 - 0.0
05/05:00am 22.4 23.7 14.0 59 4.9 CALM 0 0 0 0 1015.7 - 0.0
05/04:30am 22.8 23.6 12.7 53 5.8 CALM 0 0 0 0 1015.7 - 0.0
05/04:00am 23.3 23.7 13.8 55 5.6 NNW 4 7 2 4 1015.6 - 0.0
05/03:30am 24.4 25.5 13.6 51 6.3 CALM 0 0 0 0 1015.6 - 0.0
05/03:00am 25.6 26.9 14.1 49 6.8 CALM 0 0 0 0 1015.7 1015.3 0.0
05/02:30am 26.6 26.7 14.4 47 7.3 ESE 7 19 4 10 1015.9 - 0.0
05/02:00am 27.4 27.4 15.1 47 7.5 NNW 9 13 5 7 1015.7 - 0.0
05/01:30am 27.7 27.1 14.7 45 7.9 NNW 11 13 6 7 1015.9 - 0.0
05/01:00am 28.1 27.5 14.7 44 8.1 NNW 11 17 6 9 1016.1 - 0.0
05/12:30am 28.5 27.9 14.7 43 8.4 NNW 11 15 6 8 1016.2 - 0.0
05/12:00am 28.6 28.8 14.8 43 8.4 NNW 7 11 4 6 1016.5 1016.1 0.0
 
Date/Time
CST
Temp
°C
App
Temp
°C
Dew
Point
Rel
Hum
%
Delta-T
°C
Wind Press
QNH
hPa
Press
MSL
hPa
Rain
since 9 am
mm
Dir
 
Spd
km/h
Gust
km/h
Spd
kts
Gust
kts
04/11:30pm 28.6 28.6 14.1 41 8.7 NW 7 11 4 6 1016.5 - 0.0
04/11:00pm 29.3 29.3 13.5 38 9.4 NW 6 11 3 6 1016.4 - 0.0
04/10:30pm 29.0 27.8 11.6 34 10.1 W 9 13 5 7 1016.4 - 0.0
04/10:00pm 29.9 30.2 10.9 31 10.9 CALM 0 0 0 0 1016.0 - 0.0
04/09:30pm 29.7 29.4 8.7 27 11.6 CALM 0 0 0 0 1015.8 - 0.0
04/09:00pm 29.9 29.8 9.4 28 11.5 CALM 0 0 0 0 1015.6 1015.2 0.0
04/08:30pm 30.8 29.9 9.1 26 12.2 NE 4 6 2 3 1015.3 - 0.0
04/08:00pm 32.6 31.2 8.8 23 13.4 ENE 6 7 3 4 1014.9 - 0.0
04/07:30pm 33.6 32.2 9.0 22 14.0 ENE 6 9 3 5 1014.5 - 0.0
04/07:00pm 34.7 33.2 9.2 21 14.6 E 7 11 4 6 1014.2 - 0.0
04/06:30pm 35.5 32.6 9.8 21 14.9 E 15 20 8 11 1013.9 - 0.0
04/06:00pm 36.2 33.9 8.9 19 15.7 E 11 17 6 9 1013.6 1013.1 0.0
04/05:30pm 36.1 33.4 8.8 19 15.6 NE 13 20 7 11 1013.4 - 0.0
04/05:00pm 36.7 34.7 8.5 18 16.1 NE 9 17 5 9 1013.3 - 0.0
04/04:30pm 37.1 35.3 9.6 19 16.0 SE 9 24 5 13 1013.3 - 0.0
04/04:00pm 36.6 33.6 9.2 19 15.8 ESE 15 24 8 13 1013.4 - 0.0
04/03:30pm 36.2 34.3 10.4 21 15.1 SSW 11 15 6 8 1013.5 - 0.0
04/03:00pm 35.7 33.3 10.0 21 14.9 ESE 13 22 7 12 1013.8 1013.3 0.0
04/02:30pm 36.5 35.0 10.6 21 15.3 SSW 9 13 5 7 1014.2 - 0.0
04/02:00pm 35.9 33.2 10.2 21 15.0 E 15 20 8 11 1014.6 - 0.0
04/01:30pm 36.7 34.5 12.2 23 14.8 ENE 15 28 8 15 1015.2 - 0.0
04/01:00pm 35.9 33.4 12.2 24 14.3 ENE 17 30 9 16 1015.6 - 0.0
04/12:30pm 34.9 32.8 13.7 28 13.0 NNE 17 28 9 15 1016.1 - 0.0
04/12:00pm 33.6 31.9 13.6 29 12.2 NNE 15 26 8 14 1016.9 1016.5 0.0
04/11:30am 33.8 31.6 13.3 29 12.4 N 17 28 9 15 1017.3 - 0.0
04/11:00am 33.4 31.6 14.5 32 11.6 NNE 17 24 9 13 1017.6 - 0.0
04/10:30am 31.8 29.3 13.5 32 11.0 NNE 19 30 10 16 1018.0 - 0.0
04/10:00am 31.3 29.7 14.0 35 10.5 N 15 22 8 12 1018.1 - 0.0
04/09:30am 29.3 28.5 15.1 42 8.7 N 13 17 7 9 1018.2 - 0.0
04/09:00am 27.5 27.6 17.4 54 6.4 NNE 13 19 7 10 1018.1 1017.7 0.0
04/08:30am 26.6 26.9 17.1 56 5.9 NNE 11 15 6 8 1018.0 - 0.0
04/08:00am 25.4 25.3 16.0 56 5.8 NNE 11 15 6 8 1017.7 - 0.0
04/07:30am 24.5 24.4 14.9 55 5.8 NNE 9 13 5 7 1017.3 - 0.0
04/07:00am 24.4 21.8 6.2 31 9.4 NE 9 11 5 6 1016.9 - 0.0
04/06:30am 22.9 21.2 5.8 33 8.7 ESE 4 11 2 6 1016.4 - 0.0
04/06:00am 25.2 22.1 3.8 25 10.6 E 9 9 5 5 1016.0 1015.6 0.0
04/05:30am 25.0 23.9 5.2 28 10.1 CALM 0 6 0 3 1015.6 - 0.0
04/05:00am 25.9 24.8 7.0 30 10.0 SE 2 7 1 4 1015.2 - 0.0
04/04:30am 24.4 24.6 11.7 45 7.2 NW 2 9 1 5 1015.1 - 0.0
04/04:00am 25.1 25.0 10.9 41 8.0 NE 2 7 1 4 1015.0 - 0.0
04/03:30am 25.0 24.3 11.9 44 7.5 WNW 7 9 4 5 1015.1 - 0.0
04/03:00am 25.7 24.6 9.9 37 8.7 NNW 6 9 3 5 1015.2 1014.8 0.0
04/02:30am 26.9 26.8 9.3 33 9.7 CALM 0 6 0 3 1015.3 - 0.0
04/02:00am 27.4 25.8 8.8 31 10.2 N 7 11 4 6 1015.2 - 0.0
04/01:30am 27.6 27.3 8.5 30 10.4 CALM 0 0 0 0 1015.1 - 0.0
04/01:00am 28.4 27.6 8.1 28 11.1 N 2 7 1 4 1015.3 - 0.0
04/12:30am 28.6 27.6 8.8 29 10.9 WNW 4 7 2 4 1015.5 - 0.0
04/12:00am 29.9 28.5 8.9 27 11.7 N 6 9 3 5 1015.5 1015.1 0.0
 
Date/Time
CST
Temp
°C
App
Temp
°C
Dew
Point
Rel
Hum
%
Delta-T
°C
Wind Press
QNH
hPa
Press
MSL
hPa
Rain
since 9 am
mm
Dir
 
Spd
km/h
Gust
km/h
Spd
kts
Gust
kts
03/11:30pm 28.5 26.1 8.7 29 10.9 N 11 15 6 8 1015.5 - 0.0
03/11:00pm 27.2 25.3 6.6 27 10.9 S 6 13 3 7 1015.5 - 0.0
03/10:30pm 28.0 27.4 7.3 27 11.1 CALM 0 0 0 0 1015.3 - 0.0
03/10:00pm 28.3 27.9 8.1 28 11.0 CALM 0 0 0 0 1015.1 - 0.0
03/09:30pm 29.3 28.3 7.2 25 11.9 NE 2 9 1 5 1015.0 - 0.0
03/09:00pm 30.5 28.7 7.0 23 12.7 NNE 6 7 3 4 1014.7 1014.2 0.0
03/08:30pm 30.1 29.1 5.4 21 13.0 CALM 0 0 0 0 1014.5 - 0.0
03/08:00pm 32.4 30.1 5.8 19 14.3 N 7 11 4 6 1014.0 - 0.0
03/07:30pm 33.3 32.0 4.1 16 15.3 CALM 0 0 0 0 1013.5 - 0.0
03/07:00pm 35.1 32.9 3.6 14 16.5 SE 4 7 2 4 1013.0 - 0.0
03/06:30pm 36.5 34.0 4.7 14 17.1 E 7 11 4 6 1012.7 - 0.0
03/06:00pm 37.2 33.1 4.2 13 17.7 ENE 15 22 8 12 1012.6 1012.1 0.0
03/05:30pm 37.5 33.8 4.4 13 17.8 E 13 24 7 13 1012.5 - 0.0
03/05:00pm 37.6 32.4 3.4 12 18.2 ESE 20 26 11 14 1012.5 - 0.0
03/04:30pm 37.7 33.0 3.4 12 18.2 SE 17 24 9 13 1012.5 - 0.0
03/04:00pm 37.9 34.8 3.6 12 18.3 E 9 13 5 7 1012.6 - 0.0
03/03:30pm 37.5 33.4 4.4 13 17.8 SE 15 28 8 15 1012.7 - 0.0
03/03:00pm 38.2 34.0 3.8 12 18.4 E 15 24 8 13 1013.0 1012.5 0.0
03/02:30pm 37.5 33.8 4.4 13 17.8 SE 13 22 7 12 1013.4 - 0.0
03/02:00pm 37.4 33.1 3.2 12 18.1 NE 15 22 8 12 1013.9 - 0.0
03/01:30pm 37.9 32.7 3.6 12 18.3 NE 20 26 11 14 1014.3 - 0.0
03/01:00pm 36.1 31.6 2.2 12 17.5 SE 15 30 8 16 1014.9 - 0.0
03/12:30pm 37.0 31.7 1.7 11 18.2 NE 19 35 10 19 1015.3 - 0.0
03/12:00pm 35.7 31.5 1.9 12 17.3 E 13 26 7 14 1016.0 1015.6 0.0
03/11:30am 34.8 30.7 2.3 13 16.7 ESE 13 24 7 13 1016.5 - 0.0
03/11:00am 34.0 28.9 2.8 14 16.1 E 19 26 10 14 1017.0 - 0.0
03/10:30am 33.7 29.8 3.5 15 15.7 ESE 13 20 7 11 1017.3 - 0.0
03/10:00am 32.2 29.4 7.1 21 13.7 SE 11 22 6 12 1017.3 - 0.0
03/09:30am 30.8 28.6 10.7 29 11.6 S 13 17 7 9 1017.2 - 0.0
03/09:00am 28.7 27.7 13.4 39 9.1 SW 11 17 6 9 1017.3 1016.9 0.0
03/08:30am 27.4 27.5 14.4 45 7.8 SE 7 9 4 5 1017.3 - 0.0
03/08:00am 26.2 26.0 14.6 48 7.0 S 9 13 5 7 1017.1 - 0.0
03/07:30am 25.3 26.4 13.5 48 6.9 CALM 0 6 0 3 1016.5 - 0.0
03/07:00am 25.3 25.1 13.5 48 6.9 NNW 7 9 4 5 1016.0 - 0.0
03/06:30am 25.1 26.1 13.3 48 6.9 CALM 0 0 0 0 1015.7 - 0.0
03/06:00am 25.9 25.9 14.1 48 7.0 NNE 7 9 4 5 1015.5 1015.1 0.0
03/05:30am 25.2 25.0 13.1 47 7.1 N 6 7 3 4 1015.0 - 0.0
03/05:00am 24.3 25.1 12.6 48 6.7 CALM 0 0 0 0 1014.8 - 0.0
03/04:30am 24.4 25.2 12.7 48 6.8 CALM 0 0 0 0 1014.8 - 0.0
03/04:00am 25.5 25.9 12.4 44 7.6 NW 2 6 1 3 1014.7 - 0.0
03/03:30am 26.8 27.6 12.4 40 8.4 CALM 0 0 0 0 1014.5 - 0.0
03/03:00am 27.2 28.0 12.4 40 8.6 CALM 0 4 0 2 1014.6 1014.1 0.0
03/02:30am 26.3 25.7 12.4 42 8.1 SW 7 9 4 5 1014.7 - 0.0
03/02:00am 27.2 27.1 12.0 38 8.8 SSW 4 6 2 3 1014.8 - 0.0
03/01:30am 28.1 27.4 12.0 36 9.3 S 7 9 4 5 1014.9 - 0.0
03/01:00am 29.2 28.7 12.6 36 9.8 S 7 9 4 5 1014.9 - 0.0
03/12:30am 29.7 28.6 13.0 35 9.9 W 11 20 6 11 1014.9 - 0.0
03/12:00am 30.1 30.7 13.0 35 10.2 WNW 2 6 1 3 1015.0 1014.6 0.0
 
Date/Time
CST
Temp
°C
App
Temp
°C
Dew
Point
Rel
Hum
%
Delta-T
°C
Wind Press
QNH
hPa
Press
MSL
hPa
Rain
since 9 am
mm
Dir
 
Spd
km/h
Gust
km/h
Spd
kts
Gust
kts
02/11:30pm 30.4 29.8 12.3 33 10.7 NW 7 13 4 7 1014.7 - 0.0
02/11:00pm 31.1 30.4 12.0 31 11.2 WNW 7 11 4 6 1014.7 - 0.0
02/10:30pm 31.7 30.2 12.0 30 11.6 WNW 11 15 6 8 1014.5 - 0.0
02/10:00pm 31.4 30.0 12.2 30 11.3 WNW 11 17 6 9 1014.4 - 0.0
02/09:30pm 31.5 32.1 11.8 30 11.6 CALM 0 0 0 0 1014.0 - 0.0
02/09:00pm 32.1 32.5 11.3 28 12.2 CALM 0 0 0 0 1013.7 1013.2 0.0
02/08:30pm 32.7 33.1 11.3 27 12.5 CALM 0 0 0 0 1013.4 - 0.0
02/08:00pm 33.3 33.7 11.2 26 13.0 CALM 0 0 0 0 1013.0 - 0.0
02/07:30pm 34.0 34.4 11.2 25 13.4 CALM 0 0 0 0 1012.6 - 0.0
02/07:00pm 34.5 33.7 11.0 24 13.8 SW 6 7 3 4 1012.2 - 0.0
02/06:30pm 35.0 33.9 10.8 23 14.2 SSW 7 9 4 5 1012.0 - 0.0
02/06:00pm 35.3 34.3 11.0 23 14.3 WSW 7 11 4 6 1011.8 1011.3 0.0
02/05:30pm 35.4 34.1 11.1 23 14.4 WNW 9 11 5 6 1011.6 - 0.0
02/05:00pm 35.5 34.0 10.5 22 14.6 WNW 9 13 5 7 1011.5 - 0.0
02/04:30pm 35.7 33.9 10.7 22 14.7 WNW 11 17 6 9 1011.4 - 0.0
02/04:00pm 37.0 34.3 11.8 22 15.1 NW 17 24 9 13 1011.4 - 0.0
02/03:30pm 36.7 33.7 10.8 21 15.3 NNW 17 24 9 13 1011.5 - 0.0
02/03:00pm 35.6 34.7 11.3 23 14.4 N 7 15 4 8 1011.9 1011.4 0.0
02/02:30pm 35.5 32.5 11.8 24 14.1 SSW 19 22 10 12 1012.2 - 0.0
02/02:00pm 34.9 34.2 11.9 24 13.7 NW 7 17 4 9 1012.8 - 0.0
02/01:30pm 35.1 33.1 11.5 24 14.0 N 13 22 7 12 1013.4 - 0.0

Other Formats:

Comma delimited format used in spreadsheet applications
http://www.bom.gov.au/fwo/IDD60801/IDD60801.94130.axf

JavaScript Object Notation format (JSON) in row-major order
http://www.bom.gov.au/fwo/IDD60801/IDD60801.94130.json